sensor_id;sensor_type;location;lat;lon;timestamp;pressure;altitude;pressure_sealevel;temperature;humidity
9249;BME280;4660;41.768;26.198;2024-03-17T00:02:23;101300.16;;;7.54;100.00
9249;BME280;4660;41.768;26.198;2024-03-17T00:04:49;101335.72;;;7.68;100.00
9249;BME280;4660;41.768;26.198;2024-03-17T00:07:14;101314.38;;;7.41;100.00
9249;BME280;4660;41.768;26.198;2024-03-17T00:09:40;101327.13;;;7.38;100.00
9249;BME280;4660;41.768;26.198;2024-03-17T00:12:07;101307.75;;;7.34;100.00
9249;BME280;4660;41.768;26.198;2024-03-17T00:14:36;101329.69;;;7.39;100.00
9249;BME280;4660;41.768;26.198;2024-03-17T00:17:02;101330.66;;;7.38;100.00
9249;BME280;4660;41.768;26.198;2024-03-17T00:19:28;101327.16;;;7.51;100.00
9249;BME280;4660;41.768;26.198;2024-03-17T00:21:54;101323.50;;;7.52;100.00
9249;BME280;4660;41.768;26.198;2024-03-17T00:24:19;101338.59;;;7.53;100.00
9249;BME280;4660;41.768;26.198;2024-03-17T00:26:48;101334.75;;;7.44;100.00
9249;BME280;4660;41.768;26.198;2024-03-17T00:29:16;101333.47;;;7.37;100.00
9249;BME280;4660;41.768;26.198;2024-03-17T00:31:42;101340.53;;;7.38;100.00
9249;BME280;4660;41.768;26.198;2024-03-17T00:34:08;101336.56;;;7.43;100.00
9249;BME280;4660;41.768;26.198;2024-03-17T00:36:34;101345.75;;;7.39;100.00
9249;BME280;4660;41.768;26.198;2024-03-17T00:39:00;101333.53;;;7.35;100.00
9249;BME280;4660;41.768;26.198;2024-03-17T00:41:25;101326.16;;;7.26;100.00
9249;BME280;4660;41.768;26.198;2024-03-17T00:43:51;101336.53;;;7.18;100.00
9249;BME280;4660;41.768;26.198;2024-03-17T00:46:20;101328.72;;;7.15;100.00
9249;BME280;4660;41.768;26.198;2024-03-17T00:48:49;101337.19;;;7.34;100.00
9249;BME280;4660;41.768;26.198;2024-03-17T00:51:15;101330.75;;;7.50;100.00
9249;BME280;4660;41.768;26.198;2024-03-17T00:53:41;101335.91;;;7.40;100.00
9249;BME280;4660;41.768;26.198;2024-03-17T00:56:07;101331.13;;;7.58;100.00
9249;BME280;4660;41.768;26.198;2024-03-17T00:58:32;101327.03;;;7.39;100.00
9249;BME280;4660;41.768;26.198;2024-03-17T01:00:58;101320.81;;;7.39;100.00
9249;BME280;4660;41.768;26.198;2024-03-17T01:03:23;101320.72;;;7.40;100.00
9249;BME280;4660;41.768;26.198;2024-03-17T01:05:49;101330.66;;;7.38;100.00
9249;BME280;4660;41.768;26.198;2024-03-17T01:08:18;101314.59;;;7.26;100.00
9249;BME280;4660;41.768;26.198;2024-03-17T01:10:45;101330.13;;;7.33;100.00
9249;BME280;4660;41.768;26.198;2024-03-17T01:13:10;101328.63;;;7.29;100.00
9249;BME280;4660;41.768;26.198;2024-03-17T01:15:37;101319.16;;;7.11;100.00
9249;BME280;4660;41.768;26.198;2024-03-17T01:18:07;101322.34;;;7.43;100.00
9249;BME280;4660;41.768;26.198;2024-03-17T01:20:35;101321.78;;;7.51;100.00
9249;BME280;4660;41.768;26.198;2024-03-17T01:23:01;101314.28;;;7.30;100.00
9249;BME280;4660;41.768;26.198;2024-03-17T01:25:27;101316.88;;;7.44;100.00
9249;BME280;4660;41.768;26.198;2024-03-17T01:27:55;101314.16;;;7.32;100.00
9249;BME280;4660;41.768;26.198;2024-03-17T01:30:20;101324.34;;;7.39;100.00
9249;BME280;4660;41.768;26.198;2024-03-17T01:32:46;101303.78;;;7.27;100.00
9249;BME280;4660;41.768;26.198;2024-03-17T01:35:12;101309.44;;;7.35;100.00
9249;BME280;4660;41.768;26.198;2024-03-17T01:37:38;101321.22;;;7.20;100.00
9249;BME280;4660;41.768;26.198;2024-03-17T01:40:05;101312.13;;;7.23;100.00
9249;BME280;4660;41.768;26.198;2024-03-17T01:42:41;101323.28;;;7.29;100.00
9249;BME280;4660;41.768;26.198;2024-03-17T01:45:26;101314.28;;;7.30;100.00
9249;BME280;4660;41.768;26.198;2024-03-17T01:47:56;101320.16;;;7.35;100.00
9249;BME280;4660;41.768;26.198;2024-03-17T01:50:26;101312.34;;;7.32;100.00
9249;BME280;4660;41.768;26.198;2024-03-17T01:52:56;101301.00;;;7.41;100.00
9249;BME280;4660;41.768;26.198;2024-03-17T01:55:25;101312.78;;;7.39;100.00
9249;BME280;4660;41.768;26.198;2024-03-17T01:57:52;101307.63;;;7.23;100.00
9249;BME280;4660;41.768;26.198;2024-03-17T02:00:18;101308.16;;;7.15;100.00
9249;BME280;4660;41.768;26.198;2024-03-17T02:02:43;101303.97;;;7.11;100.00
9249;BME280;4660;41.768;26.198;2024-03-17T02:05:09;101312.22;;;7.08;100.00
9249;BME280;4660;41.768;26.198;2024-03-17T02:07:35;101311.00;;;7.00;100.00
9249;BME280;4660;41.768;26.198;2024-03-17T02:10:01;101301.97;;;6.75;100.00
9249;BME280;4660;41.768;26.198;2024-03-17T02:12:30;101303.50;;;6.92;100.00
9249;BME280;4660;41.768;26.198;2024-03-17T02:14:57;101296.88;;;6.98;100.00
9249;BME280;4660;41.768;26.198;2024-03-17T02:17:23;101302.47;;;6.95;100.00
9249;BME280;4660;41.768;26.198;2024-03-17T02:19:51;101302.63;;;6.92;100.00
9249;BME280;4660;41.768;26.198;2024-03-17T02:22:16;101297.91;;;6.82;100.00
9249;BME280;4660;41.768;26.198;2024-03-17T02:24:45;101294.53;;;7.06;100.00
9249;BME280;4660;41.768;26.198;2024-03-17T02:27:12;101304.69;;;6.88;100.00
9249;BME280;4660;41.768;26.198;2024-03-17T02:29:37;101296.41;;;6.78;100.00
9249;BME280;4660;41.768;26.198;2024-03-17T02:32:03;101296.31;;;6.80;100.00
9249;BME280;4660;41.768;26.198;2024-03-17T02:34:37;101297.75;;;6.98;100.00
9249;BME280;4660;41.768;26.198;2024-03-17T02:37:03;101299.44;;;6.86;100.00
9249;BME280;4660;41.768;26.198;2024-03-17T02:39:30;101299.97;;;6.79;100.00
9249;BME280;4660;41.768;26.198;2024-03-17T02:42:07;101298.38;;;6.89;100.00
9249;BME280;4660;41.768;26.198;2024-03-17T02:44:36;101298.28;;;7.03;100.00
9249;BME280;4660;41.768;26.198;2024-03-17T02:47:03;101296.69;;;7.13;100.00
9249;BME280;4660;41.768;26.198;2024-03-17T02:49:30;101297.13;;;7.20;100.00
9249;BME280;4660;41.768;26.198;2024-03-17T02:52:07;101292.72;;;6.94;100.00
9249;BME280;4660;41.768;26.198;2024-03-17T02:54:37;101286.84;;;7.14;100.00
9249;BME280;4660;41.768;26.198;2024-03-17T02:57:04;101301.31;;;7.24;100.00
9249;BME280;4660;41.768;26.198;2024-03-17T02:59:29;101306.13;;;7.19;100.00
9249;BME280;4660;41.768;26.198;2024-03-17T03:01:56;101304.94;;;6.71;100.00
9249;BME280;4660;41.768;26.198;2024-03-17T03:04:22;101288.16;;;6.42;100.00
9249;BME280;4660;41.768;26.198;2024-03-17T03:06:47;101284.56;;;6.28;100.00
9249;BME280;4660;41.768;26.198;2024-03-17T03:09:14;101296.63;;;6.48;100.00
9249;BME280;4660;41.768;26.198;2024-03-17T03:11:41;101302.13;;;6.59;100.00
9249;BME280;4660;41.768;26.198;2024-03-17T03:14:09;101303.16;;;6.57;100.00
9249;BME280;4660;41.768;26.198;2024-03-17T03:16:35;101301.16;;;6.60;100.00
9249;BME280;4660;41.768;26.198;2024-03-17T03:19:00;101312.03;;;6.72;100.00
9249;BME280;4660;41.768;26.198;2024-03-17T03:21:26;101295.41;;;6.40;100.00
9249;BME280;4660;41.768;26.198;2024-03-17T03:23:51;101303.16;;;6.57;100.00
9249;BME280;4660;41.768;26.198;2024-03-17T03:26:19;101308.56;;;6.70;100.00
9249;BME280;4660;41.768;26.198;2024-03-17T03:28:45;101310.94;;;6.74;100.00
9249;BME280;4660;41.768;26.198;2024-03-17T03:31:11;101315.78;;;6.82;100.00
9249;BME280;4660;41.768;26.198;2024-03-17T03:33:42;101320.84;;;6.99;100.00
9249;BME280;4660;41.768;26.198;2024-03-17T03:36:12;101319.41;;;7.08;100.00
9249;BME280;4660;41.768;26.198;2024-03-17T03:38:38;101315.91;;;6.80;100.00
9249;BME280;4660;41.768;26.198;2024-03-17T03:41:13;101316.69;;;6.68;100.00
9249;BME280;4660;41.768;26.198;2024-03-17T03:43:39;101328.09;;;6.84;100.00
9249;BME280;4660;41.768;26.198;2024-03-17T03:46:04;101339.69;;;6.98;100.00
9249;BME280;4660;41.768;26.198;2024-03-17T03:48:31;101309.19;;;6.87;100.00
9249;BME280;4660;41.768;26.198;2024-03-17T03:50:57;101321.91;;;6.97;100.00
9249;BME280;4660;41.768;26.198;2024-03-17T03:53:24;101321.59;;;6.88;100.00
9249;BME280;4660;41.768;26.198;2024-03-17T03:55:49;101325.91;;;6.77;100.00
9249;BME280;4660;41.768;26.198;2024-03-17T03:58:15;101332.91;;;6.79;100.00
9249;BME280;4660;41.768;26.198;2024-03-17T04:00:41;101338.09;;;6.68;100.00
9249;BME280;4660;41.768;26.198;2024-03-17T04:03:07;101329.03;;;6.44;100.00
9249;BME280;4660;41.768;26.198;2024-03-17T04:05:32;101338.19;;;6.40;100.00
9249;BME280;4660;41.768;26.198;2024-03-17T04:08:00;101341.59;;;6.42;100.00
9249;BME280;4660;41.768;26.198;2024-03-17T04:10:25;101342.94;;;6.34;100.00
9249;BME280;4660;41.768;26.198;2024-03-17T04:12:52;101344.66;;;6.35;100.00
9249;BME280;4660;41.768;26.198;2024-03-17T04:15:17;101341.84;;;6.24;100.00
9249;BME280;4660;41.768;26.198;2024-03-17T04:17:43;101351.13;;;6.04;100.00
9249;BME280;4660;41.768;26.198;2024-03-17T04:20:09;101358.63;;;5.84;100.00
9249;BME280;4660;41.768;26.198;2024-03-17T04:22:38;101365.16;;;6.08;100.00
9249;BME280;4660;41.768;26.198;2024-03-17T04:25:04;101363.59;;;6.18;100.00
9249;BME280;4660;41.768;26.198;2024-03-17T04:27:30;101363.41;;;6.07;100.00
9249;BME280;4660;41.768;26.198;2024-03-17T04:29:58;101371.03;;;6.27;100.00
9249;BME280;4660;41.768;26.198;2024-03-17T04:32:23;101372.56;;;6.31;100.00
9249;BME280;4660;41.768;26.198;2024-03-17T04:34:49;101369.69;;;6.20;100.00
9249;BME280;4660;41.768;26.198;2024-03-17T04:37:16;101367.59;;;6.25;100.00
9249;BME280;4660;41.768;26.198;2024-03-17T04:39:44;101370.03;;;6.43;100.00
9249;BME280;4660;41.768;26.198;2024-03-17T04:42:13;101372.88;;;6.54;100.00
9249;BME280;4660;41.768;26.198;2024-03-17T04:44:43;101375.31;;;6.71;100.00
9249;BME280;4660;41.768;26.198;2024-03-17T04:47:09;101365.91;;;6.66;100.00
9249;BME280;4660;41.768;26.198;2024-03-17T04:49:40;101374.06;;;6.77;100.00
9249;BME280;4660;41.768;26.198;2024-03-17T04:52:07;101362.44;;;6.63;100.00
9249;BME280;4660;41.768;26.198;2024-03-17T04:54:33;101353.00;;;6.31;100.00
9249;BME280;4660;41.768;26.198;2024-03-17T04:56:59;101369.47;;;6.52;100.00
9249;BME280;4660;41.768;26.198;2024-03-17T04:59:25;101366.59;;;6.82;100.00
9249;BME280;4660;41.768;26.198;2024-03-17T05:01:51;101367.69;;;6.92;100.00
9249;BME280;4660;41.768;26.198;2024-03-17T05:04:17;101372.22;;;7.04;100.00
9249;BME280;4660;41.768;26.198;2024-03-17T05:06:43;101376.84;;;7.02;100.00
9249;BME280;4660;41.768;26.198;2024-03-17T05:09:16;101371.81;;;6.56;100.00
9249;BME280;4660;41.768;26.198;2024-03-17T05:11:42;101328.84;;;6.32;100.00
9249;BME280;4660;41.768;26.198;2024-03-17T05:14:08;101334.44;;;6.42;100.00
9249;BME280;4660;41.768;26.198;2024-03-17T05:16:33;101386.22;;;6.68;100.00
9249;BME280;4660;41.768;26.198;2024-03-17T05:18:59;101364.63;;;6.98;100.00
9249;BME280;4660;41.768;26.198;2024-03-17T05:21:25;101371.97;;;7.22;100.00
9249;BME280;4660;41.768;26.198;2024-03-17T05:23:51;101379.81;;;7.37;100.00
9249;BME280;4660;41.768;26.198;2024-03-17T05:26:18;101384.13;;;7.53;100.00
9249;BME280;4660;41.768;26.198;2024-03-17T05:28:43;101347.88;;;7.34;100.00
9249;BME280;4660;41.768;26.198;2024-03-17T05:31:12;101387.66;;;7.66;100.00
9249;BME280;4660;41.768;26.198;2024-03-17T05:33:43;101390.38;;;7.79;100.00
9249;BME280;4660;41.768;26.198;2024-03-17T05:36:09;101379.66;;;7.79;100.00
9249;BME280;4660;41.768;26.198;2024-03-17T05:38:34;101395.19;;;7.86;100.00
9249;BME280;4660;41.768;26.198;2024-03-17T05:43:31;101403.72;;;7.91;100.00
9249;BME280;4660;41.768;26.198;2024-03-17T05:45:59;101404.69;;;7.90;100.00
9249;BME280;4660;41.768;26.198;2024-03-17T05:48:26;101403.53;;;7.94;100.00
9249;BME280;4660;41.768;26.198;2024-03-17T05:50:52;101400.44;;;8.00;100.00
9249;BME280;4660;41.768;26.198;2024-03-17T05:53:18;101405.34;;;8.07;100.00
9249;BME280;4660;41.768;26.198;2024-03-17T05:55:44;101406.84;;;8.11;100.00
9249;BME280;4660;41.768;26.198;2024-03-17T05:58:10;101398.69;;;7.99;100.00
9249;BME280;4660;41.768;26.198;2024-03-17T06:00:36;101394.94;;;7.64;100.00
9249;BME280;4660;41.768;26.198;2024-03-17T06:03:02;101396.03;;;7.74;100.00
9249;BME280;4660;41.768;26.198;2024-03-17T06:05:32;101388.09;;;7.85;100.00
9249;BME280;4660;41.768;26.198;2024-03-17T06:07:58;101391.72;;;7.97;100.00
9249;BME280;4660;41.768;26.198;2024-03-17T06:10:23;101390.34;;;8.04;100.00
9249;BME280;4660;41.768;26.198;2024-03-17T06:12:52;101385.22;;;8.01;100.00
9249;BME280;4660;41.768;26.198;2024-03-17T06:15:17;101392.28;;;8.02;100.00
9249;BME280;4660;41.768;26.198;2024-03-17T06:17:43;101395.16;;;8.12;100.00
9249;BME280;4660;41.768;26.198;2024-03-17T06:20:09;101404.91;;;8.13;100.00
9249;BME280;4660;41.768;26.198;2024-03-17T06:22:39;101366.47;;;7.88;100.00
9249;BME280;4660;41.768;26.198;2024-03-17T06:25:06;101408.44;;;8.13;100.00
9249;BME280;4660;41.768;26.198;2024-03-17T06:27:32;101411.47;;;8.09;100.00
9249;BME280;4660;41.768;26.198;2024-03-17T06:30:00;101413.91;;;8.24;100.00
9249;BME280;4660;41.768;26.198;2024-03-17T06:32:32;101426.22;;;8.27;100.00
9249;BME280;4660;41.768;26.198;2024-03-17T06:35:01;101422.25;;;8.33;100.00
9249;BME280;4660;41.768;26.198;2024-03-17T06:37:27;101406.28;;;8.31;100.00
9249;BME280;4660;41.768;26.198;2024-03-17T06:39:52;101426.00;;;8.43;100.00
9249;BME280;4660;41.768;26.198;2024-03-17T06:42:19;101398.44;;;8.28;100.00
9249;BME280;4660;41.768;26.198;2024-03-17T06:44:44;101426.00;;;8.55;100.00
9249;BME280;4660;41.768;26.198;2024-03-17T06:47:10;101432.97;;;8.58;100.00
9249;BME280;4660;41.768;26.198;2024-03-17T06:49:36;101438.56;;;8.42;100.00
9249;BME280;4660;41.768;26.198;2024-03-17T06:52:01;101435.25;;;8.51;100.00
9249;BME280;4660;41.768;26.198;2024-03-17T06:54:27;101399.75;;;8.35;100.00
9249;BME280;4660;41.768;26.198;2024-03-17T06:56:52;101429.66;;;8.54;100.00
9249;BME280;4660;41.768;26.198;2024-03-17T06:59:18;101439.50;;;8.67;100.00
9249;BME280;4660;41.768;26.198;2024-03-17T07:01:46;101423.09;;;8.59;100.00
9249;BME280;4660;41.768;26.198;2024-03-17T07:04:13;101423.69;;;8.75;100.00
9249;BME280;4660;41.768;26.198;2024-03-17T07:06:38;101441.19;;;9.04;100.00
9249;BME280;4660;41.768;26.198;2024-03-17T07:09:04;101424.22;;;9.28;100.00
9249;BME280;4660;41.768;26.198;2024-03-17T07:11:30;101434.50;;;9.34;100.00
9249;BME280;4660;41.768;26.198;2024-03-17T07:13:57;101441.69;;;9.33;100.00
9249;BME280;4660;41.768;26.198;2024-03-17T07:16:22;101438.28;;;9.31;100.00
9249;BME280;4660;41.768;26.198;2024-03-17T07:18:50;101438.22;;;9.44;100.00
9249;BME280;4660;41.768;26.198;2024-03-17T07:21:15;101438.06;;;9.81;100.00
9249;BME280;4660;41.768;26.198;2024-03-17T07:23:41;101448.34;;;9.87;100.00
9249;BME280;4660;41.768;26.198;2024-03-17T07:26:06;101445.66;;;9.87;100.00
9249;BME280;4660;41.768;26.198;2024-03-17T07:28:34;101447.59;;;9.85;100.00
9249;BME280;4660;41.768;26.198;2024-03-17T07:31:00;101450.44;;;9.95;100.00
9249;BME280;4660;41.768;26.198;2024-03-17T07:33:26;101440.75;;;9.81;100.00
9249;BME280;4660;41.768;26.198;2024-03-17T07:35:53;101447.66;;;10.07;100.00
9249;BME280;4660;41.768;26.198;2024-03-17T07:38:25;101441.31;;;10.19;100.00
9249;BME280;4660;41.768;26.198;2024-03-17T07:41:07;101448.56;;;10.53;100.00
9249;BME280;4660;41.768;26.198;2024-03-17T07:43:34;101448.06;;;10.47;100.00
9249;BME280;4660;41.768;26.198;2024-03-17T07:46:05;101440.59;;;10.73;100.00
9249;BME280;4660;41.768;26.198;2024-03-17T07:48:32;101445.44;;;11.02;100.00
9249;BME280;4660;41.768;26.198;2024-03-17T07:51:01;101439.81;;;10.94;100.00
9249;BME280;4660;41.768;26.198;2024-03-17T07:53:29;101432.81;;;11.02;100.00
9249;BME280;4660;41.768;26.198;2024-03-17T07:56:08;101438.06;;;11.04;100.00
9249;BME280;4660;41.768;26.198;2024-03-17T07:58:36;101427.31;;;11.04;100.00
9249;BME280;4660;41.768;26.198;2024-03-17T08:01:05;101426.81;;;11.10;100.00
9249;BME280;4660;41.768;26.198;2024-03-17T08:03:32;101435.38;;;11.15;100.00
9249;BME280;4660;41.768;26.198;2024-03-17T08:06:00;101436.50;;;11.34;100.00
9249;BME280;4660;41.768;26.198;2024-03-17T08:08:27;101437.53;;;11.53;100.00
9249;BME280;4660;41.768;26.198;2024-03-17T08:10:53;101444.38;;;11.78;100.00
9249;BME280;4660;41.768;26.198;2024-03-17T08:13:20;101432.03;;;11.97;100.00
9249;BME280;4660;41.768;26.198;2024-03-17T08:15:55;101433.34;;;12.02;100.00
9249;BME280;4660;41.768;26.198;2024-03-17T08:18:21;101428.16;;;12.10;100.00
9249;BME280;4660;41.768;26.198;2024-03-17T08:20:46;101440.03;;;12.29;100.00
9249;BME280;4660;41.768;26.198;2024-03-17T08:23:12;101423.06;;;12.17;100.00
9249;BME280;4660;41.768;26.198;2024-03-17T08:25:38;101427.34;;;12.20;100.00
9249;BME280;4660;41.768;26.198;2024-03-17T08:28:04;101418.84;;;12.24;100.00
9249;BME280;4660;41.768;26.198;2024-03-17T08:30:29;101430.00;;;12.10;100.00
9249;BME280;4660;41.768;26.198;2024-03-17T08:32:58;101418.13;;;12.22;100.00
9249;BME280;4660;41.768;26.198;2024-03-17T08:35:24;101422.41;;;12.25;100.00
9249;BME280;4660;41.768;26.198;2024-03-17T08:37:50;101381.72;;;12.47;100.00
9249;BME280;4660;41.768;26.198;2024-03-17T08:40:22;101408.94;;;12.65;100.00
9249;BME280;4660;41.768;26.198;2024-03-17T08:42:50;101423.75;;;13.00;100.00
9249;BME280;4660;41.768;26.198;2024-03-17T08:45:16;101417.81;;;13.06;100.00
9249;BME280;4660;41.768;26.198;2024-03-17T08:47:42;101408.56;;;13.18;100.00
9249;BME280;4660;41.768;26.198;2024-03-17T08:50:08;101406.84;;;13.07;100.00
9249;BME280;4660;41.768;26.198;2024-03-17T08:52:39;101402.78;;;13.32;100.00
9249;BME280;4660;41.768;26.198;2024-03-17T08:55:05;101406.06;;;13.45;100.00
9249;BME280;4660;41.768;26.198;2024-03-17T08:57:35;101405.50;;;13.52;100.00
9249;BME280;4660;41.768;26.198;2024-03-17T09:00:01;101404.63;;;13.32;100.00
9249;BME280;4660;41.768;26.198;2024-03-17T09:02:26;101391.84;;;13.24;100.00
9249;BME280;4660;41.768;26.198;2024-03-17T09:04:52;101400.63;;;13.55;100.00
9249;BME280;4660;41.768;26.198;2024-03-17T09:07:17;101385.56;;;13.53;100.00
9249;BME280;4660;41.768;26.198;2024-03-17T09:09:43;101400.63;;;13.55;100.00
9249;BME280;4660;41.768;26.198;2024-03-17T09:12:08;101390.41;;;13.59;100.00
9249;BME280;4660;41.768;26.198;2024-03-17T09:14:34;101373.72;;;13.73;100.00
9249;BME280;4660;41.768;26.198;2024-03-17T09:17:00;101387.63;;;13.88;100.00
9249;BME280;4660;41.768;26.198;2024-03-17T09:19:26;101386.59;;;13.98;100.00
9249;BME280;4660;41.768;26.198;2024-03-17T09:21:54;101376.34;;;14.02;100.00
9249;BME280;4660;41.768;26.198;2024-03-17T09:24:20;101377.09;;;13.94;100.00
9249;BME280;4660;41.768;26.198;2024-03-17T09:26:45;101362.25;;;13.98;100.00
9249;BME280;4660;41.768;26.198;2024-03-17T09:29:11;101359.28;;;13.92;100.00
9249;BME280;4660;41.768;26.198;2024-03-17T09:31:37;101339.06;;;13.96;100.00
9249;BME280;4660;41.768;26.198;2024-03-17T09:34:02;101356.34;;;14.13;100.00
9249;BME280;4660;41.768;26.198;2024-03-17T09:36:28;101346.19;;;14.24;100.00
9249;BME280;4660;41.768;26.198;2024-03-17T09:38:53;101354.00;;;14.27;100.00
9249;BME280;4660;41.768;26.198;2024-03-17T09:41:24;101355.50;;;14.12;100.00
9249;BME280;4660;41.768;26.198;2024-03-17T09:43:56;101361.38;;;14.08;100.00
9249;BME280;4660;41.768;26.198;2024-03-17T09:46:26;101334.72;;;14.13;100.00
9249;BME280;4660;41.768;26.198;2024-03-17T09:48:53;101348.56;;;14.00;100.00
9249;BME280;4660;41.768;26.198;2024-03-17T09:51:21;101351.56;;;13.97;100.00
9249;BME280;4660;41.768;26.198;2024-03-17T09:53:47;101350.28;;;14.01;100.00
9249;BME280;4660;41.768;26.198;2024-03-17T09:56:16;101336.91;;;14.27;100.00
9249;BME280;4660;41.768;26.198;2024-03-17T09:58:47;101344.50;;;14.23;100.00
9249;BME280;4660;41.768;26.198;2024-03-17T10:01:13;101337.50;;;14.21;100.00
9249;BME280;4660;41.768;26.198;2024-03-17T10:03:48;101345.75;;;14.29;100.00
9249;BME280;4660;41.768;26.198;2024-03-17T10:06:24;101341.72;;;14.33;100.00
9249;BME280;4660;41.768;26.198;2024-03-17T10:08:58;101336.75;;;14.28;100.00
9249;BME280;4660;41.768;26.198;2024-03-17T10:11:25;101314.97;;;14.30;100.00
9249;BME280;4660;41.768;26.198;2024-03-17T10:14:08;101333.06;;;14.57;100.00
9249;BME280;4660;41.768;26.198;2024-03-17T10:16:35;101326.75;;;14.66;100.00
9249;BME280;4660;41.768;26.198;2024-03-17T10:19:13;101323.28;;;14.74;100.00
9249;BME280;4660;41.768;26.198;2024-03-17T10:21:41;101332.78;;;14.78;100.00
9249;BME280;4660;41.768;26.198;2024-03-17T10:24:22;101322.44;;;14.91;100.00
9249;BME280;4660;41.768;26.198;2024-03-17T10:29:24;101328.06;;;14.98;100.00
9249;BME280;4660;41.768;26.198;2024-03-17T10:32:02;101318.97;;;14.81;100.00
9249;BME280;4660;41.768;26.198;2024-03-17T10:34:30;101316.56;;;14.96;100.00
9249;BME280;4660;41.768;26.198;2024-03-17T10:37:16;101322.91;;;15.22;100.00
9249;BME280;4660;41.768;26.198;2024-03-17T10:39:51;101305.56;;;14.97;100.00
9249;BME280;4660;41.768;26.198;2024-03-17T10:42:27;101321.09;;;15.13;100.00
9249;BME280;4660;41.768;26.198;2024-03-17T10:44:57;101310.75;;;15.08;100.00
9249;BME280;4660;41.768;26.198;2024-03-17T10:47:25;101301.22;;;15.22;100.00
9249;BME280;4660;41.768;26.198;2024-03-17T10:49:53;101301.97;;;15.32;100.00
9249;BME280;4660;41.768;26.198;2024-03-17T10:52:19;101307.97;;;15.44;100.00
9249;BME280;4660;41.768;26.198;2024-03-17T10:54:48;101303.25;;;15.46;100.00
9249;BME280;4660;41.768;26.198;2024-03-17T10:59:54;101290.53;;;15.64;100.00
9249;BME280;4660;41.768;26.198;2024-03-17T11:02:26;101286.47;;;15.68;100.00
9249;BME280;4660;41.768;26.198;2024-03-17T11:04:58;101284.44;;;15.71;100.00
9249;BME280;4660;41.768;26.198;2024-03-17T11:07:25;101276.66;;;15.76;100.00
9249;BME280;4660;41.768;26.198;2024-03-17T11:09:53;101253.09;;;15.76;97.25
9249;BME280;4660;41.768;26.198;2024-03-17T11:12:45;101278.03;;;16.14;96.45
9249;BME280;4660;41.768;26.198;2024-03-17T11:17:45;101279.16;;;16.45;89.67
9249;BME280;4660;41.768;26.198;2024-03-17T11:20:24;101259.13;;;16.46;83.64
9249;BME280;4660;41.768;26.198;2024-03-17T11:22:57;101254.53;;;16.47;90.93
9249;BME280;4660;41.768;26.198;2024-03-17T11:27:58;101264.63;;;16.71;88.13
9249;BME280;4660;41.768;26.198;2024-03-17T11:44:32;101228.63;;;16.77;84.18
9249;BME280;4660;41.768;26.198;2024-03-17T11:47:06;101210.97;;;16.81;84.61
9249;BME280;4660;41.768;26.198;2024-03-17T11:49:33;101228.97;;;16.98;84.75
9249;BME280;4660;41.768;26.198;2024-03-17T11:52:04;101224.38;;;16.99;82.45
9249;BME280;4660;41.768;26.198;2024-03-17T11:57:13;101209.09;;;17.06;82.33
9249;BME280;4660;41.768;26.198;2024-03-17T11:59:40;101217.53;;;17.36;85.01
9249;BME280;4660;41.768;26.198;2024-03-17T12:02:28;101205.66;;;17.37;84.79
9249;BME280;4660;41.768;26.198;2024-03-17T12:04:57;101204.06;;;17.58;82.94
9249;BME280;4660;41.768;26.198;2024-03-17T12:07:23;101195.34;;;17.63;79.18
9249;BME280;4660;41.768;26.198;2024-03-17T12:09:50;101191.41;;;17.82;80.96
9249;BME280;4660;41.768;26.198;2024-03-17T12:12:20;101199.53;;;17.90;80.85
9249;BME280;4660;41.768;26.198;2024-03-17T12:14:48;101205.44;;;18.02;79.93
9249;BME280;4660;41.768;26.198;2024-03-17T12:17:15;101187.94;;;17.96;79.63
9249;BME280;4660;41.768;26.198;2024-03-17T12:19:45;101192.25;;;17.82;80.21
9249;BME280;4660;41.768;26.198;2024-03-17T12:22:24;101183.81;;;17.61;80.04
9249;BME280;4660;41.768;26.198;2024-03-17T12:24:57;101188.72;;;17.74;83.62
9249;BME280;4660;41.768;26.198;2024-03-17T12:27:26;101178.34;;;17.61;82.90
9249;BME280;4660;41.768;26.198;2024-03-17T12:29:53;101189.91;;;17.63;83.70
9249;BME280;4660;41.768;26.198;2024-03-17T12:32:20;101171.50;;;17.26;82.99
9249;BME280;4660;41.768;26.198;2024-03-17T12:34:55;101173.41;;;17.17;84.81
9249;BME280;4660;41.768;26.198;2024-03-17T12:37:25;101176.09;;;17.25;85.14
9249;BME280;4660;41.768;26.198;2024-03-17T12:39:56;101165.34;;;17.40;85.46
9249;BME280;4660;41.768;26.198;2024-03-17T12:42:25;101182.44;;;17.73;84.04
9249;BME280;4660;41.768;26.198;2024-03-17T12:44:54;101176.31;;;17.63;82.15
9249;BME280;4660;41.768;26.198;2024-03-17T12:47:21;101171.25;;;17.52;82.12
9249;BME280;4660;41.768;26.198;2024-03-17T12:49:54;101172.06;;;17.60;82.61
9249;BME280;4660;41.768;26.198;2024-03-17T12:52:25;101168.16;;;17.55;84.22
9249;BME280;4660;41.768;26.198;2024-03-17T12:55:05;101166.94;;;17.74;83.35
9249;BME280;4660;41.768;26.198;2024-03-17T12:57:50;101158.19;;;17.47;84.18
9249;BME280;4660;41.768;26.198;2024-03-17T13:00:34;101163.44;;;17.49;87.29
9249;BME280;4660;41.768;26.198;2024-03-17T13:03:01;101159.28;;;17.69;84.81
9249;BME280;4660;41.768;26.198;2024-03-17T13:05:27;101167.50;;;18.00;83.91
9249;BME280;4660;41.768;26.198;2024-03-17T13:07:53;101151.66;;;18.04;83.22
9249;BME280;4660;41.768;26.198;2024-03-17T13:10:22;101153.78;;;18.17;83.84
9249;BME280;4660;41.768;26.198;2024-03-17T13:12:57;101153.13;;;18.37;84.35
9249;BME280;4660;41.768;26.198;2024-03-17T13:15:23;101129.91;;;18.41;84.92
9249;BME280;4660;41.768;26.198;2024-03-17T13:17:49;101137.59;;;18.61;82.69
9249;BME280;4660;41.768;26.198;2024-03-17T13:20:17;101135.91;;;18.60;83.37
9249;BME280;4660;41.768;26.198;2024-03-17T13:22:44;101133.69;;;18.40;83.32
9249;BME280;4660;41.768;26.198;2024-03-17T13:25:17;101133.63;;;18.49;84.10
9249;BME280;4660;41.768;26.198;2024-03-17T13:27:44;101111.97;;;18.32;83.37
9249;BME280;4660;41.768;26.198;2024-03-17T13:30:13;101137.84;;;18.05;82.59
9249;BME280;4660;41.768;26.198;2024-03-17T13:32:39;101135.91;;;18.14;82.71